sensor_id;sensor_type;location;lat;lon;timestamp;pressure;altitude;pressure_sealevel;temperature;humidity
84795;BME280;75026;49.184;16.564;2024-02-15T00:01:08;99283.97;;;19.69;52.65
84795;BME280;75026;49.184;16.564;2024-02-15T00:06:13;99274.88;;;19.65;52.51
84795;BME280;75026;49.184;16.564;2024-02-15T00:11:14;99278.03;;;19.67;52.35
84795;BME280;75026;49.184;16.564;2024-02-15T00:16:15;99273.28;;;19.64;52.45
84795;BME280;75026;49.184;16.564;2024-02-15T00:21:16;99272.94;;;19.62;52.38
84795;BME280;75026;49.184;16.564;2024-02-15T00:26:17;99273.41;;;19.57;52.84
84795;BME280;75026;49.184;16.564;2024-02-15T00:31:17;99267.44;;;19.55;52.62
84795;BME280;75026;49.184;16.564;2024-02-15T00:36:19;99271.44;;;19.54;52.59
84795;BME280;75026;49.184;16.564;2024-02-15T00:41:20;99269.50;;;19.51;52.84
84795;BME280;75026;49.184;16.564;2024-02-15T00:46:22;99283.47;;;19.51;52.65
84795;BME280;75026;49.184;16.564;2024-02-15T00:51:22;99288.31;;;19.47;52.74
84795;BME280;75026;49.184;16.564;2024-02-15T00:56:23;99286.34;;;19.44;52.79
84795;BME280;75026;49.184;16.564;2024-02-15T01:01:25;99269.59;;;19.44;52.81
84795;BME280;75026;49.184;16.564;2024-02-15T01:06:25;99270.38;;;19.44;52.66
84795;BME280;75026;49.184;16.564;2024-02-15T01:11:27;99280.81;;;19.40;52.87
84795;BME280;75026;49.184;16.564;2024-02-15T01:16:29;99285.63;;;19.40;52.77
84795;BME280;75026;49.184;16.564;2024-02-15T01:21:30;99292.00;;;19.40;52.81
84795;BME280;75026;49.184;16.564;2024-02-15T01:26:31;99280.09;;;19.36;52.83
84795;BME280;75026;49.184;16.564;2024-02-15T01:31:31;99284.91;;;19.35;52.79
84795;BME280;75026;49.184;16.564;2024-02-15T01:36:32;99276.13;;;19.33;52.65
84795;BME280;75026;49.184;16.564;2024-02-15T01:41:33;99252.25;;;19.32;52.70
84795;BME280;75026;49.184;16.564;2024-02-15T01:46:34;99245.88;;;19.32;52.66
84795;BME280;75026;49.184;16.564;2024-02-15T01:51:35;99240.69;;;19.30;52.51
84795;BME280;75026;49.184;16.564;2024-02-15T01:56:37;99234.75;;;19.28;52.58
84795;BME280;75026;49.184;16.564;2024-02-15T02:01:38;99235.25;;;19.23;52.78
84795;BME280;75026;49.184;16.564;2024-02-15T02:06:39;99229.66;;;19.23;52.89
84795;BME280;75026;49.184;16.564;2024-02-15T02:11:44;99230.44;;;19.24;52.65
84795;BME280;75026;49.184;16.564;2024-02-15T02:16:45;99237.97;;;19.27;52.53
84795;BME280;75026;49.184;16.564;2024-02-15T02:21:47;99236.44;;;19.22;52.68
84795;BME280;75026;49.184;16.564;2024-02-15T02:26:51;99233.31;;;19.20;52.70
84795;BME280;75026;49.184;16.564;2024-02-15T02:31:52;99220.66;;;19.12;52.75
84795;BME280;75026;49.184;16.564;2024-02-15T02:36:53;99214.22;;;19.15;52.67
84795;BME280;75026;49.184;16.564;2024-02-15T02:41:54;99215.94;;;19.09;52.73
84795;BME280;75026;49.184;16.564;2024-02-15T02:46:55;99220.66;;;19.12;52.73
84795;BME280;75026;49.184;16.564;2024-02-15T02:51:55;99218.72;;;19.09;53.05
84795;BME280;75026;49.184;16.564;2024-02-15T02:56:56;99221.91;;;19.07;52.79
84795;BME280;75026;49.184;16.564;2024-02-15T03:01:57;99223.91;;;19.07;52.90
84795;BME280;75026;49.184;16.564;2024-02-15T03:06:58;99216.88;;;18.99;53.18
84795;BME280;75026;49.184;16.564;2024-02-15T03:11:59;99216.09;;;18.98;53.03
84795;BME280;75026;49.184;16.564;2024-02-15T03:17:01;99224.88;;;18.97;53.09
84795;BME280;75026;49.184;16.564;2024-02-15T03:22:04;99218.88;;;18.98;53.02
84795;BME280;75026;49.184;16.564;2024-02-15T03:27:04;99222.56;;;18.92;53.10
84795;BME280;75026;49.184;16.564;2024-02-15T03:32:06;99224.97;;;18.89;53.38
84795;BME280;75026;49.184;16.564;2024-02-15T03:37:07;99221.88;;;18.84;53.26
84795;BME280;75026;49.184;16.564;2024-02-15T03:42:08;99229.47;;;18.83;53.38
84795;BME280;75026;49.184;16.564;2024-02-15T03:47:08;99234.25;;;18.83;53.43
84795;BME280;75026;49.184;16.564;2024-02-15T03:52:10;99239.09;;;18.79;53.24
84795;BME280;75026;49.184;16.564;2024-02-15T03:57:11;99240.22;;;18.81;53.28
84795;BME280;75026;49.184;16.564;2024-02-15T04:02:12;99238.28;;;18.78;53.45
84795;BME280;75026;49.184;16.564;2024-02-15T04:07:15;99237.50;;;18.78;53.49
84795;BME280;75026;49.184;16.564;2024-02-15T04:12:16;99242.72;;;18.76;53.51
84795;BME280;75026;49.184;16.564;2024-02-15T04:17:17;99235.59;;;18.71;53.69
84795;BME280;75026;49.184;16.564;2024-02-15T04:22:22;99241.19;;;18.71;53.50
84795;BME280;75026;49.184;16.564;2024-02-15T04:27:22;99239.56;;;18.70;53.53
84795;BME280;75026;49.184;16.564;2024-02-15T04:32:23;99242.00;;;18.68;53.43
84795;BME280;75026;49.184;16.564;2024-02-15T04:37:24;99244.78;;;18.68;53.45
84795;BME280;75026;49.184;16.564;2024-02-15T04:42:27;99245.19;;;18.66;53.48
84795;BME280;75026;49.184;16.564;2024-02-15T04:47:28;99240.47;;;18.63;53.56
84795;BME280;75026;49.184;16.564;2024-02-15T04:52:30;99246.81;;;18.64;53.52
84795;BME280;75026;49.184;16.564;2024-02-15T04:57:31;99241.28;;;18.60;53.61
84795;BME280;75026;49.184;16.564;2024-02-15T05:02:34;99242.91;;;18.58;53.66
84795;BME280;75026;49.184;16.564;2024-02-15T05:07:37;99248.91;;;18.56;53.68
84795;BME280;75026;49.184;16.564;2024-02-15T05:12:38;99247.69;;;18.57;53.59
84795;BME280;75026;49.184;16.564;2024-02-15T05:17:43;99253.69;;;18.56;53.66
84795;BME280;75026;49.184;16.564;2024-02-15T05:22:44;99250.97;;;18.52;53.70
84795;BME280;75026;49.184;16.564;2024-02-15T05:27:46;99247.75;;;18.54;53.65
84795;BME280;75026;49.184;16.564;2024-02-15T05:32:47;99240.59;;;18.53;53.66
84795;BME280;75026;49.184;16.564;2024-02-15T05:37:48;99246.97;;;18.53;53.58
84795;BME280;75026;49.184;16.564;2024-02-15T05:42:54;99247.66;;;18.61;53.34
84795;BME280;75026;49.184;16.564;2024-02-15T05:47:56;99242.78;;;18.69;53.18
84795;BME280;75026;49.184;16.564;2024-02-15T05:52:57;99250.59;;;18.81;52.89
84795;BME280;75026;49.184;16.564;2024-02-15T05:57:58;99255.16;;;18.98;52.55
84795;BME280;75026;49.184;16.564;2024-02-15T06:02:59;99245.34;;;19.13;52.14
84795;BME280;75026;49.184;16.564;2024-02-15T06:08:04;99248.72;;;19.28;51.88
84795;BME280;75026;49.184;16.564;2024-02-15T06:13:05;99254.06;;;19.43;51.75
84795;BME280;75026;49.184;16.564;2024-02-15T06:18:06;99262.22;;;19.57;51.52
84795;BME280;75026;49.184;16.564;2024-02-15T06:23:10;99281.13;;;19.73;51.25
84795;BME280;75026;49.184;16.564;2024-02-15T06:28:11;99261.47;;;19.80;51.43
84795;BME280;75026;49.184;16.564;2024-02-15T06:33:30;99263.25;;;19.90;51.13
84795;BME280;75026;49.184;16.564;2024-02-15T06:38:50;99275.09;;;19.98;51.12
84795;BME280;75026;49.184;16.564;2024-02-15T06:44:09;99290.16;;;20.04;51.30
84795;BME280;75026;49.184;16.564;2024-02-15T06:49:10;99286.00;;;20.12;51.20
84795;BME280;75026;49.184;16.564;2024-02-15T06:54:11;99294.78;;;20.14;51.24
84795;BME280;75026;49.184;16.564;2024-02-15T06:59:14;99297.91;;;20.16;51.13
84795;BME280;75026;49.184;16.564;2024-02-15T07:04:15;99296.72;;;20.17;51.22
84795;BME280;75026;49.184;16.564;2024-02-15T07:09:16;99305.81;;;20.21;51.07
84795;BME280;75026;49.184;16.564;2024-02-15T07:14:19;99307.81;;;20.21;51.08
84795;BME280;75026;49.184;16.564;2024-02-15T07:19:20;99308.25;;;20.19;51.29
84795;BME280;75026;49.184;16.564;2024-02-15T07:24:21;99313.41;;;20.21;51.19
84795;BME280;75026;49.184;16.564;2024-02-15T07:29:22;99313.03;;;20.19;51.10
84795;BME280;75026;49.184;16.564;2024-02-15T07:34:26;99315.50;;;20.17;51.40
84795;BME280;75026;49.184;16.564;2024-02-15T07:39:27;99317.47;;;20.16;51.29
84795;BME280;75026;49.184;16.564;2024-02-15T07:44:28;99317.91;;;20.15;51.39
84795;BME280;75026;49.184;16.564;2024-02-15T07:49:31;99310.75;;;20.14;51.49
84795;BME280;75026;49.184;16.564;2024-02-15T07:54:31;99315.56;;;20.13;51.45
84795;BME280;75026;49.184;16.564;2024-02-15T07:59:34;99320.78;;;20.11;51.51
84795;BME280;75026;49.184;16.564;2024-02-15T08:04:36;99314.41;;;20.10;51.47
84795;BME280;75026;49.184;16.564;2024-02-15T08:09:42;99312.44;;;20.07;51.59
84795;BME280;75026;49.184;16.564;2024-02-15T08:14:44;99309.31;;;20.05;51.60
84795;BME280;75026;49.184;16.564;2024-02-15T08:19:45;99304.50;;;20.06;51.57
84795;BME280;75026;49.184;16.564;2024-02-15T08:24:45;99304.56;;;20.02;51.62
84795;BME280;75026;49.184;16.564;2024-02-15T08:29:48;99295.75;;;20.04;51.58
84795;BME280;75026;49.184;16.564;2024-02-15T08:34:48;99306.56;;;20.02;51.50
84795;BME280;75026;49.184;16.564;2024-02-15T08:39:50;99309.38;;;20.02;51.69
84795;BME280;75026;49.184;16.564;2024-02-15T08:44:53;99305.34;;;20.03;51.50
84795;BME280;75026;49.184;16.564;2024-02-15T08:49:53;99299.75;;;20.03;51.42
84795;BME280;75026;49.184;16.564;2024-02-15T08:54:54;99296.59;;;20.01;51.55
84795;BME280;75026;49.184;16.564;2024-02-15T08:59:57;99296.97;;;20.03;51.56
84795;BME280;75026;49.184;16.564;2024-02-15T09:04:58;99292.16;;;20.03;51.56
84795;BME280;75026;49.184;16.564;2024-02-15T09:09:59;99296.97;;;20.03;51.63
84795;BME280;75026;49.184;16.564;2024-02-15T09:15:00;99291.38;;;20.03;51.72
84795;BME280;75026;49.184;16.564;2024-02-15T09:20:01;99302.91;;;20.05;51.70
84795;BME280;75026;49.184;16.564;2024-02-15T09:25:02;99301.34;;;20.04;51.70
84795;BME280;75026;49.184;16.564;2024-02-15T09:30:04;99306.91;;;20.04;51.66
84795;BME280;75026;49.184;16.564;2024-02-15T09:35:09;99298.13;;;20.05;51.59
84795;BME280;75026;49.184;16.564;2024-02-15T09:40:12;99289.31;;;20.07;51.59
84795;BME280;75026;49.184;16.564;2024-02-15T09:45:13;99290.09;;;20.07;51.66
84795;BME280;75026;49.184;16.564;2024-02-15T09:50:19;99292.53;;;20.05;51.72
84795;BME280;75026;49.184;16.564;2024-02-15T09:55:20;99293.66;;;20.08;51.51
84795;BME280;75026;49.184;16.564;2024-02-15T10:00:23;99299.63;;;20.10;51.53
84795;BME280;75026;49.184;16.564;2024-02-15T10:05:24;99294.03;;;20.10;51.68
84795;BME280;75026;49.184;16.564;2024-02-15T10:10:25;99303.63;;;20.09;51.55
84795;BME280;75026;49.184;16.564;2024-02-15T10:20:28;99306.78;;;20.11;51.75
84795;BME280;75026;49.184;16.564;2024-02-15T10:25:29;99317.97;;;20.11;51.72
84795;BME280;75026;49.184;16.564;2024-02-15T10:30:30;99319.53;;;20.12;51.73
84795;BME280;75026;49.184;16.564;2024-02-15T10:35:33;99314.75;;;20.13;51.61
84795;BME280;75026;49.184;16.564;2024-02-15T10:40:37;99307.53;;;20.15;51.69
84795;BME280;75026;49.184;16.564;2024-02-15T10:45:39;99307.53;;;20.15;51.68
84795;BME280;75026;49.184;16.564;2024-02-15T10:50:41;99295.56;;;20.15;51.63
84795;BME280;75026;49.184;16.564;2024-02-15T10:55:52;99286.72;;;20.16;51.72
84795;BME280;75026;49.184;16.564;2024-02-15T11:00:53;99286.72;;;20.16;51.63
84795;BME280;75026;49.184;16.564;2024-02-15T11:05:55;99291.13;;;20.17;51.62
84795;BME280;75026;49.184;16.564;2024-02-15T11:10:59;99281.13;;;20.16;51.79
84795;BME280;75026;49.184;16.564;2024-02-15T11:16:02;99272.34;;;20.18;51.68
84795;BME280;75026;49.184;16.564;2024-02-15T11:21:03;99273.13;;;20.18;51.65
84795;BME280;75026;49.184;16.564;2024-02-15T11:26:07;99265.09;;;20.20;51.61
84795;BME280;75026;49.184;16.564;2024-02-15T11:31:09;99261.50;;;20.20;51.63
84795;BME280;75026;49.184;16.564;2024-02-15T11:36:12;99265.47;;;20.22;51.82
84795;BME280;75026;49.184;16.564;2024-02-15T11:41:18;99261.09;;;20.21;51.63
84795;BME280;75026;49.184;16.564;2024-02-15T11:46:19;99255.50;;;20.21;51.72
84795;BME280;75026;49.184;16.564;2024-02-15T11:51:30;99261.09;;;20.21;51.50
84795;BME280;75026;49.184;16.564;2024-02-15T11:57:05;99267.47;;;20.22;51.78
84795;BME280;75026;49.184;16.564;2024-02-15T12:02:11;99263.44;;;20.23;51.78
84795;BME280;75026;49.184;16.564;2024-02-15T12:07:30;99257.84;;;20.23;51.65
84795;BME280;75026;49.184;16.564;2024-02-15T12:12:51;99244.66;;;20.23;51.73
84795;BME280;75026;49.184;16.564;2024-02-15T12:18:19;99235.94;;;20.21;51.74
84795;BME280;75026;49.184;16.564;2024-02-15T12:23:39;99233.06;;;20.25;51.73
84795;BME280;75026;49.184;16.564;2024-02-15T12:28:41;99233.47;;;20.23;51.78
84795;BME280;75026;49.184;16.564;2024-02-15T12:33:43;99228.25;;;20.25;51.52
84795;BME280;75026;49.184;16.564;2024-02-15T12:38:45;99221.88;;;20.25;51.78
84795;BME280;75026;49.184;16.564;2024-02-15T12:43:46;99217.09;;;20.25;51.73
84795;BME280;75026;49.184;16.564;2024-02-15T12:48:47;99212.72;;;20.24;51.76
84795;BME280;75026;49.184;16.564;2024-02-15T12:53:48;99215.84;;;20.26;51.70
84795;BME280;75026;49.184;16.564;2024-02-15T12:58:49;99208.69;;;20.25;51.86
84795;BME280;75026;49.184;16.564;2024-02-15T13:03:49;99203.44;;;20.27;51.82
84795;BME280;75026;49.184;16.564;2024-02-15T13:08:52;99196.28;;;20.26;51.71
84795;BME280;75026;49.184;16.564;2024-02-15T13:13:52;99197.94;;;20.24;52.01
84795;BME280;75026;49.184;16.564;2024-02-15T13:18:55;99195.94;;;20.24;51.83
84795;BME280;75026;49.184;16.564;2024-02-15T13:23:56;99196.28;;;20.26;51.77
84795;BME280;75026;49.184;16.564;2024-02-15T13:28:57;99213.06;;;20.26;51.87
84795;BME280;75026;49.184;16.564;2024-02-15T13:33:58;99203.09;;;20.25;51.75
84795;BME280;75026;49.184;16.564;2024-02-15T13:38:58;99191.47;;;20.27;51.82
84795;BME280;75026;49.184;16.564;2024-02-15T13:44:00;99201.88;;;20.26;51.88
84795;BME280;75026;49.184;16.564;2024-02-15T13:49:01;99193.06;;;20.28;51.77
84795;BME280;75026;49.184;16.564;2024-02-15T13:54:02;99196.28;;;20.26;51.95
84795;BME280;75026;49.184;16.564;2024-02-15T13:59:03;99201.88;;;20.26;51.86
84795;BME280;75026;49.184;16.564;2024-02-15T14:04:05;99189.47;;;20.27;51.94
84795;BME280;75026;49.184;16.564;2024-02-15T14:09:06;99179.88;;;20.28;51.73
84795;BME280;75026;49.184;16.564;2024-02-15T14:14:07;99177.09;;;20.28;51.92
84795;BME280;75026;49.184;16.564;2024-02-15T14:19:08;99177.50;;;20.27;51.80
84795;BME280;75026;49.184;16.564;2024-02-15T14:24:09;99174.63;;;20.30;51.88
84795;BME280;75026;49.184;16.564;2024-02-15T14:29:10;99180.22;;;20.30;51.83
84795;BME280;75026;49.184;16.564;2024-02-15T14:34:11;99182.69;;;20.28;51.99
84795;BME280;75026;49.184;16.564;2024-02-15T14:39:12;99193.06;;;20.28;51.97
84795;BME280;75026;49.184;16.564;2024-02-15T14:44:14;99192.25;;;20.27;52.11
84795;BME280;75026;49.184;16.564;2024-02-15T14:49:15;99188.28;;;20.28;52.02
84795;BME280;75026;49.184;16.564;2024-02-15T14:54:17;99193.84;;;20.28;51.95
84795;BME280;75026;49.184;16.564;2024-02-15T14:59:19;99188.28;;;20.28;51.83
84795;BME280;75026;49.184;16.564;2024-02-15T15:04:20;99189.41;;;20.31;51.78
84795;BME280;75026;49.184;16.564;2024-02-15T15:09:21;99191.06;;;20.28;52.19
84795;BME280;75026;49.184;16.564;2024-02-15T15:14:40;99191.41;;;20.30;51.96
84795;BME280;75026;49.184;16.564;2024-02-15T15:19:42;99198.22;;;20.29;52.16
84795;BME280;75026;49.184;16.564;2024-02-15T15:24:42;99193.84;;;20.28;52.21
84795;BME280;75026;49.184;16.564;2024-02-15T15:29:44;99191.06;;;20.28;52.15
84795;BME280;75026;49.184;16.564;2024-02-15T15:34:45;99193.41;;;20.30;52.08
84795;BME280;75026;49.184;16.564;2024-02-15T15:39:46;99201.03;;;20.29;52.17
84795;BME280;75026;49.184;16.564;2024-02-15T15:44:47;99193.06;;;20.28;52.01
84795;BME280;75026;49.184;16.564;2024-02-15T15:49:48;99193.84;;;20.28;52.13
84795;BME280;75026;49.184;16.564;2024-02-15T15:54:49;99195.44;;;20.29;52.23
84795;BME280;75026;49.184;16.564;2024-02-15T15:59:51;99194.66;;;20.29;51.98
84795;BME280;75026;49.184;16.564;2024-02-15T16:04:52;99192.63;;;20.29;52.06
84795;BME280;75026;49.184;16.564;2024-02-15T16:09:55;99193.84;;;20.28;52.21
84795;BME280;75026;49.184;16.564;2024-02-15T16:14:56;99185.47;;;20.28;52.39
84795;BME280;75026;49.184;16.564;2024-02-15T16:20:00;99180.28;;;20.27;52.09
84795;BME280;75026;49.184;16.564;2024-02-15T16:25:01;99191.47;;;20.27;52.18
84795;BME280;75026;49.184;16.564;2024-02-15T16:30:10;99192.25;;;20.27;52.25
84795;BME280;75026;49.184;16.564;2024-02-15T16:35:11;99197.50;;;20.25;52.24
84795;BME280;75026;49.184;16.564;2024-02-15T16:40:15;99207.47;;;20.26;52.16
84795;BME280;75026;49.184;16.564;2024-02-15T16:45:17;99194.28;;;20.27;52.24
84795;BME280;75026;49.184;16.564;2024-02-15T16:50:19;99195.06;;;20.27;52.14
84795;BME280;75026;49.184;16.564;2024-02-15T16:55:20;99208.25;;;20.27;52.35
84795;BME280;75026;49.184;16.564;2024-02-15T17:00:32;99214.22;;;20.29;52.28
84795;BME280;75026;49.184;16.564;2024-02-15T17:05:33;99218.56;;;20.30;52.29
84795;BME280;75026;49.184;16.564;2024-02-15T17:10:35;99221.03;;;20.28;52.17
84795;BME280;75026;49.184;16.564;2024-02-15T17:15:37;99231.41;;;20.27;52.22
84795;BME280;75026;49.184;16.564;2024-02-15T17:20:38;99221.81;;;20.28;52.18
84795;BME280;75026;49.184;16.564;2024-02-15T17:25:39;99230.19;;;20.28;52.32
84795;BME280;75026;49.184;16.564;2024-02-15T17:30:41;99231.41;;;20.27;52.21
84795;BME280;75026;49.184;16.564;2024-02-15T17:35:43;99238.59;;;20.28;52.30
84795;BME280;75026;49.184;16.564;2024-02-15T17:40:44;99241.72;;;20.30;52.18
84795;BME280;75026;49.184;16.564;2024-02-15T17:45:45;99243.81;;;20.26;52.31
84795;BME280;75026;49.184;16.564;2024-02-15T17:50:47;99241.72;;;20.30;52.15
84795;BME280;75026;49.184;16.564;2024-02-15T17:55:51;99247.31;;;20.30;52.29
84795;BME280;75026;49.184;16.564;2024-02-15T18:00:52;99250.91;;;20.31;52.19
84795;BME280;75026;49.184;16.564;2024-02-15T18:05:53;99251.34;;;20.29;52.01
84795;BME280;75026;49.184;16.564;2024-02-15T18:10:54;99243.75;;;20.30;52.40
84795;BME280;75026;49.184;16.564;2024-02-15T18:15:57;99248.91;;;20.31;52.24
84795;BME280;75026;49.184;16.564;2024-02-15T18:20:58;99240.94;;;20.30;52.43
84795;BME280;75026;49.184;16.564;2024-02-15T18:25:59;99242.16;;;20.29;52.21
84795;BME280;75026;49.184;16.564;2024-02-15T18:31:03;99230.53;;;20.30;52.36
84795;BME280;75026;49.184;16.564;2024-02-15T18:36:07;99230.53;;;20.30;52.32
84795;BME280;75026;49.184;16.564;2024-02-15T18:41:08;99231.41;;;20.27;52.34
84795;BME280;75026;49.184;16.564;2024-02-15T18:46:09;99240.94;;;20.30;52.30
84795;BME280;75026;49.184;16.564;2024-02-15T18:51:15;99237.72;;;20.31;52.26
84795;BME280;75026;49.184;16.564;2024-02-15T18:56:16;99241.72;;;20.30;52.26
84795;BME280;75026;49.184;16.564;2024-02-15T19:01:18;99239.31;;;20.32;52.33
84795;BME280;75026;49.184;16.564;2024-02-15T19:06:19;99231.00;;;20.29;52.34
84795;BME280;75026;49.184;16.564;2024-02-15T19:11:20;99237.72;;;20.31;52.31
84795;BME280;75026;49.184;16.564;2024-02-15T19:16:21;99240.94;;;20.30;52.25
84795;BME280;75026;49.184;16.564;2024-02-15T19:21:25;99223.75;;;20.31;52.28
84795;BME280;75026;49.184;16.564;2024-02-15T19:26:26;99220.97;;;20.31;52.28
84795;BME280;75026;49.184;16.564;2024-02-15T19:31:27;99220.16;;;20.31;52.39
84795;BME280;75026;49.184;16.564;2024-02-15T19:36:28;99216.16;;;20.32;52.35
84795;BME280;75026;49.184;16.564;2024-02-15T19:41:28;99219.38;;;20.30;52.48
84795;BME280;75026;49.184;16.564;2024-02-15T19:46:31;99216.56;;;20.30;52.31
84795;BME280;75026;49.184;16.564;2024-02-15T19:51:32;99226.56;;;20.31;52.20
84795;BME280;75026;49.184;16.564;2024-02-15T19:56:33;99209.41;;;20.29;52.43
84795;BME280;75026;49.184;16.564;2024-02-15T20:01:34;99214.56;;;20.31;52.40
84795;BME280;75026;49.184;16.564;2024-02-15T20:06:35;99216.94;;;20.32;52.32
84795;BME280;75026;49.184;16.564;2024-02-15T20:11:37;99212.19;;;20.29;52.56
84795;BME280;75026;49.184;16.564;2024-02-15T20:16:38;99218.16;;;20.31;52.63
84795;BME280;75026;49.184;16.564;2024-02-15T20:21:41;99206.97;;;20.31;52.31
84795;BME280;75026;49.184;16.564;2024-02-15T20:26:42;99220.97;;;20.31;52.46
84795;BME280;75026;49.184;16.564;2024-02-15T20:31:44;99223.31;;;20.33;52.44
84795;BME280;75026;49.184;16.564;2024-02-15T20:36:46;99216.16;;;20.32;52.33
84795;BME280;75026;49.184;16.564;2024-02-15T20:41:47;99211.75;;;20.31;52.37
84795;BME280;75026;49.184;16.564;2024-02-15T20:46:49;99221.31;;;20.33;52.40
84795;BME280;75026;49.184;16.564;2024-02-15T20:51:50;99212.13;;;20.33;52.42
84795;BME280;75026;49.184;16.564;2024-02-15T20:56:52;99213.78;;;20.30;52.50
84795;BME280;75026;49.184;16.564;2024-02-15T21:01:53;99207.31;;;20.33;52.40
84795;BME280;75026;49.184;16.564;2024-02-15T21:06:54;99198.59;;;20.31;52.45
84795;BME280;75026;49.184;16.564;2024-02-15T21:11:55;99213.78;;;20.30;52.71
84795;BME280;75026;49.184;16.564;2024-02-15T21:16:56;99210.50;;;20.36;52.82
84795;BME280;75026;49.184;16.564;2024-02-15T21:21:57;99206.66;;;20.46;52.88
84795;BME280;75026;49.184;16.564;2024-02-15T21:26:57;99202.25;;;20.28;52.56
84795;BME280;75026;49.184;16.564;2024-02-15T21:31:59;99202.03;;;20.19;52.71
84795;BME280;75026;49.184;16.564;2024-02-15T21:37:00;99189.31;;;20.34;52.52
84795;BME280;75026;49.184;16.564;2024-02-15T21:42:16;99191.25;;;20.38;52.60
84795;BME280;75026;49.184;16.564;2024-02-15T21:47:17;99182.53;;;20.36;52.80
84795;BME280;75026;49.184;16.564;2024-02-15T21:52:18;99188.03;;;20.59;52.41
84795;BME280;75026;49.184;16.564;2024-02-15T21:57:19;99191.53;;;20.63;52.35
84795;BME280;75026;49.184;16.564;2024-02-15T22:02:39;99186.31;;;20.65;52.22
84795;BME280;75026;49.184;16.564;2024-02-15T22:08:17;99193.56;;;20.79;52.08
84795;BME280;75026;49.184;16.564;2024-02-15T22:13:18;99193.31;;;20.73;52.29
84795;BME280;75026;49.184;16.564;2024-02-15T22:18:18;99194.59;;;20.69;52.29
84795;BME280;75026;49.184;16.564;2024-02-15T22:23:19;99187.34;;;20.71;52.23
84795;BME280;75026;49.184;16.564;2024-02-15T22:28:20;99185.88;;;20.67;52.56
84795;BME280;75026;49.184;16.564;2024-02-15T22:33:22;99183.69;;;20.74;52.57
84795;BME280;75026;49.184;16.564;2024-02-15T22:38:25;99185.25;;;20.75;52.41
84795;BME280;75026;49.184;16.564;2024-02-15T22:43:25;99186.88;;;20.76;52.44
84795;BME280;75026;49.184;16.564;2024-02-15T22:48:28;99179.25;;;20.77;52.58
84795;BME280;75026;49.184;16.564;2024-02-15T22:53:29;99180.38;;;20.79;52.42
84795;BME280;75026;49.184;16.564;2024-02-15T22:58:30;99176.00;;;20.78;52.57
84795;BME280;75026;49.184;16.564;2024-02-15T23:03:31;99182.91;;;20.74;52.68
84795;BME280;75026;49.184;16.564;2024-02-15T23:08:32;99184.94;;;20.73;52.69
84795;BME280;75026;49.184;16.564;2024-02-15T23:13:33;99173.75;;;20.73;52.74
84795;BME280;75026;49.184;16.564;2024-02-15T23:18:36;99169.00;;;20.70;52.90
84795;BME280;75026;49.184;16.564;2024-02-15T23:23:38;99165.84;;;20.68;52.95
84795;BME280;75026;49.184;16.564;2024-02-15T23:28:40;99168.47;;;20.59;53.18
84795;BME280;75026;49.184;16.564;2024-02-15T23:33:43;99159.22;;;20.62;53.05
84795;BME280;75026;49.184;16.564;2024-02-15T23:38:44;99168.47;;;20.59;53.18
84795;BME280;75026;49.184;16.564;2024-02-15T23:50:33;99151.84;;;20.52;53.34
84795;BME280;75026;49.184;16.564;2024-02-15T23:55:34;99154.63;;;20.52;53.31
